Time;durP1;ratioP1;P1;durP2;ratioP2;P2;SDS_P1;SDS_P2;PMS_P1;PMS_P2;Temp;Humidity;BMP_temperature;BMP_pressure;BME280_temperature;BME280_humidity;BME280_pressure;Samples;Min_cycle;Max_cycle;Signal;HPM_P1;HPM_P2
2021/05/16 00:01:27;;;;;;;2.92;1.98;;;13.70;56.70;;;;;;4171261;28;20602;-60
2021/05/16 00:03:29;;;;;;;6.95;2.50;;;13.70;56.60;;;;;;4161825;28;20397;-57
2021/05/16 00:05:32;;;;;;;3.28;2.08;;;13.70;56.60;;;;;;4165391;28;20045;-59
2021/05/16 00:07:34;;;;;;;7.45;2.53;;;13.70;56.90;;;;;;4164707;28;20033;-60
2021/05/16 00:09:37;;;;;;;10.52;2.47;;;13.70;56.90;;;;;;4167373;28;20099;-60
2021/05/16 00:11:39;;;;;;;11.27;2.53;;;13.80;57.20;;;;;;4164504;28;20073;-61
2021/05/16 00:13:42;;;;;;;4.15;2.00;;;13.80;57.30;;;;;;4166969;28;21292;-60
2021/05/16 00:15:44;;;;;;;3.78;1.83;;;13.80;58.10;;;;;;4169289;28;20036;-59
2021/05/16 00:17:46;;;;;;;5.65;2.05;;;13.80;57.50;;;;;;4165754;28;20040;-56
2021/05/16 00:19:48;;;;;;;2.78;1.80;;;13.80;57.50;;;;;;4156738;28;20067;-53
2021/05/16 00:21:51;;;;;;;5.68;1.80;;;13.80;57.40;;;;;;4166808;28;20473;-53
2021/05/16 00:23:53;;;;;;;3.60;2.10;;;13.80;57.30;;;;;;4154771;28;20512;-54
2021/05/16 00:25:55;;;;;;;3.70;1.80;;;13.80;57.20;;;;;;4165563;28;20454;-55
2021/05/16 00:27:58;;;;;;;1.80;1.67;;;13.80;57.10;;;;;;4162334;28;20118;-56
2021/05/16 00:30:00;;;;;;;2.17;1.80;;;13.80;57.20;;;;;;4164001;28;20041;-51
2021/05/16 00:32:02;;;;;;;4.10;1.70;;;13.80;57.00;;;;;;4160584;28;20036;-59
2021/05/16 00:34:05;;;;;;;7.82;2.25;;;13.80;56.90;;;;;;4163105;28;20028;-59
2021/05/16 00:36:07;;;;;;;6.90;1.92;;;13.90;57.30;;;;;;4117103;28;20068;-60
2021/05/16 00:38:09;;;;;;;3.08;1.67;;;14.30;57.20;;;;;;4139093;28;20056;-60
2021/05/16 00:40:13;;;;;;;3.72;1.95;;;14.90;56.30;;;;;;4141395;28;20030;-56
2021/05/16 00:42:15;;;;;;;2.35;1.55;;;15.50;55.40;;;;;;4137028;28;20088;-58
2021/05/16 00:44:19;;;;;;;5.22;1.70;;;16.10;54.30;;;;;;4137179;28;20086;-58
2021/05/16 00:46:21;;;;;;;2.13;1.58;;;16.60;53.20;;;;;;4146749;28;20026;-58
2021/05/16 00:48:23;;;;;;;4.55;1.50;;;17.10;52.30;;;;;;4143218;28;20097;-58
2021/05/16 00:50:28;;;;;;;2.78;1.58;;;17.60;51.70;;;;;;4143704;28;20045;-59
2021/05/16 00:52:31;;;;;;;4.57;1.40;;;18.00;50.50;;;;;;4140144;28;20037;-59
2021/05/16 00:54:33;;;;;;;4.80;1.63;;;18.00;50.00;;;;;;4145595;28;20136;-59
2021/05/16 00:56:36;;;;;;;3.22;1.45;;;17.80;50.20;;;;;;4141332;28;20084;-59
2021/05/16 00:58:39;;;;;;;4.18;1.70;;;17.60;50.70;;;;;;4141169;28;20080;-58
2021/05/16 01:00:41;;;;;;;1.85;1.35;;;17.60;51.40;;;;;;4140310;28;20123;-58
2021/05/16 01:02:44;;;;;;;4.95;1.55;;;17.90;51.30;;;;;;4138678;28;20041;-55
2021/05/16 01:04:46;;;;;;;2.78;1.63;;;18.30;50.50;;;;;;4137901;28;20026;-58
2021/05/16 01:06:48;;;;;;;3.40;1.40;;;18.70;49.90;;;;;;4142780;28;20504;-58
2021/05/16 01:08:51;;;;;;;1.77;1.15;;;18.80;49.20;;;;;;4138770;28;20982;-58
2021/05/16 01:10:53;;;;;;;5.00;1.77;;;18.70;49.20;;;;;;4137219;28;20065;-58
2021/05/16 01:12:56;;;;;;;2.13;1.42;;;18.50;49.50;;;;;;4140599;28;20186;-57
2021/05/16 01:15:03;;;;;;;5.10;1.42;;;18.30;50.30;;;;;;4142547;28;20060;-63
2021/05/16 01:17:05;;;;;;;2.72;1.77;;;18.40;50.60;;;;;;4142705;28;20031;-64
2021/05/16 01:19:07;;;;;;;3.60;1.38;;;18.70;50.00;;;;;;4143197;28;20029;-66
2021/05/16 01:21:09;;;;;;;3.97;1.58;;;18.70;49.60;;;;;;4145102;28;20061;-66
2021/05/16 01:23:24;;;;;;;2.80;1.30;;;18.60;49.60;;;;;;4143985;28;20132;-64
2021/05/16 01:25:28;;;;;;;3.03;1.38;;;18.40;50.20;;;;;;4152422;28;20030;-63
2021/05/16 01:27:30;;;;;;;2.92;1.30;;;18.50;50.30;;;;;;4149960;28;20036;-63
2021/05/16 01:29:33;;;;;;;3.60;1.50;;;18.50;49.80;;;;;;4141822;28;20268;-66
2021/05/16 01:31:35;;;;;;;2.80;1.15;;;18.40;50.10;;;;;;4146302;28;20526;-62
2021/05/16 01:33:37;;;;;;;2.58;1.42;;;18.40;50.50;;;;;;4138325;28;20542;-63
2021/05/16 01:35:39;;;;;;;1.88;1.17;;;18.60;50.50;;;;;;4136218;28;20267;-63
2021/05/16 01:37:41;;;;;;;3.90;1.60;;;18.60;49.80;;;;;;4139031;28;20715;-65
2021/05/16 01:39:48;;;;;;;2.58;1.17;;;18.60;49.80;;;;;;4141558;28;20080;-63
2021/05/16 01:41:50;;;;;;;2.30;1.10;;;18.50;50.20;;;;;;4139811;28;20115;-64
2021/05/16 01:43:54;;;;;;;2.65;1.35;;;18.60;50.30;;;;;;4131236;28;20523;-58
2021/05/16 01:45:57;;;;;;;2.08;1.30;;;18.70;50.20;;;;;;4138802;28;20041;-51
2021/05/16 01:47:59;;;;;;;2.80;1.17;;;18.60;49.90;;;;;;4144320;28;20030;-57
2021/05/16 01:50:08;;;;;;;3.05;1.60;;;18.60;50.50;;;;;;4144686;28;20550;-58
2021/05/16 01:52:11;;;;;;;2.10;1.20;;;18.70;50.60;;;;;;4143780;28;20025;-54
2021/05/16 01:54:14;;;;;;;1.88;1.23;;;18.70;50.10;;;;;;4141710;28;20517;-57
2021/05/16 01:56:30;;;;;;;2.83;1.40;;;18.70;50.00;;;;;;4146971;28;20549;-59
2021/05/16 01:58:32;;;;;;;2.45;1.15;;;18.60;50.50;;;;;;4140916;28;20226;-60
2021/05/16 02:00:38;;;;;;;1.70;1.10;;;18.70;50.20;;;;;;4144908;28;20355;-57
2021/05/16 02:02:41;;;;;;;3.28;1.50;;;18.70;49.10;;;;;;4139579;28;20053;-57
2021/05/16 02:04:44;;;;;;;5.28;1.15;;;18.60;48.30;;;;;;4143899;28;20017;-57
2021/05/16 02:06:46;;;;;;;3.05;1.25;;;18.60;48.00;;;;;;4142711;28;20031;-60
2021/05/16 02:08:48;;;;;;;2.92;1.30;;;18.80;47.60;;;;;;4140703;28;20518;-59
2021/05/16 02:10:50;;;;;;;1.50;0.90;;;18.90;46.80;;;;;;4142426;28;20037;-58
2021/05/16 02:12:53;;;;;;;3.42;1.17;;;18.80;46.20;;;;;;4138790;28;20044;-56
2021/05/16 02:14:55;;;;;;;3.50;1.00;;;18.70;45.90;;;;;;4137176;28;20099;-56
2021/05/16 02:16:59;;;;;;;1.65;1.08;;;18.50;45.00;;;;;;4139103;28;20132;-57
2021/05/16 02:19:01;;;;;;;1.58;1.10;;;18.40;44.80;;;;;;4138362;28;20388;-55
2021/05/16 02:21:09;;;;;;;2.95;1.10;;;18.20;44.90;;;;;;4139101;28;20037;-53
2021/05/16 02:23:11;;;;;;;2.30;1.05;;;18.10;45.20;;;;;;4141081;28;20133;-57
2021/05/16 02:25:14;;;;;;;1.95;1.25;;;17.90;45.30;;;;;;4155752;28;21423;-56
2021/05/16 02:27:17;;;;;;;1.67;1.00;;;17.80;45.60;;;;;;4138071;28;20026;-54
2021/05/16 02:29:20;;;;;;;2.13;1.08;;;17.70;45.80;;;;;;4136784;28;20098;-56
2021/05/16 02:31:22;;;;;;;3.72;1.20;;;17.60;46.10;;;;;;4139298;28;20021;-55
2021/05/16 02:33:24;;;;;;;3.53;1.20;;;17.50;46.20;;;;;;4141920;28;20047;-56
2021/05/16 02:35:26;;;;;;;2.30;1.33;;;17.40;46.30;;;;;;4141889;28;20559;-57
2021/05/16 02:37:28;;;;;;;1.33;1.10;;;17.40;46.60;;;;;;4143792;28;20151;-59
2021/05/16 02:39:30;;;;;;;2.63;1.10;;;17.30;46.80;;;;;;4145570;28;20021;-58
2021/05/16 02:41:33;;;;;;;1.85;1.30;;;17.20;46.90;;;;;;4143768;28;20064;-56
2021/05/16 02:43:35;;;;;;;2.38;1.50;;;17.10;47.00;;;;;;4139623;28;20080;-56
2021/05/16 02:45:37;;;;;;;2.85;1.30;;;17.10;47.40;;;;;;4142902;28;20156;-55
2021/05/16 02:47:39;;;;;;;2.38;1.58;;;17.00;47.20;;;;;;4141445;28;20118;-58
2021/05/16 02:49:41;;;;;;;4.10;1.60;;;17.00;47.30;;;;;;4141585;28;20021;-57
2021/05/16 02:51:43;;;;;;;2.78;1.60;;;17.00;47.60;;;;;;4141747;28;20038;-57
2021/05/16 02:53:46;;;;;;;2.40;1.50;;;16.90;47.70;;;;;;4141604;28;20041;-58
2021/05/16 02:55:48;;;;;;;3.03;1.63;;;16.80;47.60;;;;;;4142575;28;20133;-57
2021/05/16 02:57:50;;;;;;;2.42;1.70;;;16.90;47.80;;;;;;4145527;28;20513;-59
2021/05/16 02:59:52;;;;;;;2.55;1.58;;;16.80;47.90;;;;;;4142742;28;20579;-58
2021/05/16 03:01:54;;;;;;;2.20;1.48;;;16.80;48.00;;;;;;4148104;28;20360;-58
2021/05/16 03:03:57;;;;;;;3.72;1.63;;;16.70;47.70;;;;;;4149455;28;20029;-60
2021/05/16 03:05:59;;;;;;;1.75;1.38;;;16.70;47.90;;;;;;4141867;28;20038;-56
2021/05/16 03:08:01;;;;;;;2.80;1.52;;;16.70;48.20;;;;;;4142665;28;20042;-59
2021/05/16 03:10:04;;;;;;;2.33;1.30;;;16.70;48.40;;;;;;4140818;28;20022;-58
2021/05/16 03:12:08;;;;;;;2.22;1.42;;;16.70;48.20;;;;;;4142450;28;20154;-59
2021/05/16 03:14:10;;;;;;;1.88;1.27;;;16.70;48.30;;;;;;4133882;28;20096;-56
2021/05/16 03:16:12;;;;;;;1.90;1.38;;;16.80;48.50;;;;;;4138562;28;20570;-59
2021/05/16 03:18:14;;;;;;;2.67;1.25;;;16.80;48.20;;;;;;4138324;28;20077;-59
2021/05/16 03:20:16;;;;;;;2.08;1.23;;;16.80;48.30;;;;;;4139387;28;20416;-52
2021/05/16 03:22:19;;;;;;;2.28;1.30;;;16.80;48.00;;;;;;4146115;28;20048;-53
2021/05/16 03:24:21;;;;;;;1.65;1.20;;;16.80;48.00;;;;;;4150082;28;20029;-56
2021/05/16 03:26:24;;;;;;;3.40;1.70;;;16.90;48.00;;;;;;4146001;28;20574;-59
2021/05/16 03:28:26;;;;;;;5.70;1.98;;;16.90;47.80;;;;;;4147765;28;21260;-61
2021/05/16 03:30:28;;;;;;;5.40;1.60;;;16.90;47.80;;;;;;4147669;28;20068;-58
2021/05/16 03:32:32;;;;;;;6.60;1.50;;;16.90;47.90;;;;;;4144860;28;20038;-60
2021/05/16 03:34:35;;;;;;;4.35;1.35;;;16.90;48.20;;;;;;4149961;28;20130;-61
2021/05/16 03:36:37;;;;;;;5.47;1.20;;;16.90;48.50;;;;;;4152635;28;20510;-60
2021/05/16 03:38:40;;;;;;;4.50;1.27;;;17.00;48.70;;;;;;4140158;28;20132;-62
2021/05/16 03:40:42;;;;;;;2.77;1.47;;;17.00;49.00;;;;;;4144927;28;20025;-60
2021/05/16 03:42:44;;;;;;;6.95;1.20;;;17.00;49.00;;;;;;4142510;28;20584;-59
2021/05/16 03:44:47;;;;;;;6.38;1.30;;;17.10;49.30;;;;;;4142713;28;20789;-60
2021/05/16 03:46:49;;;;;;;11.18;2.22;;;17.10;49.60;;;;;;4140364;28;20466;-61
2021/05/16 03:48:51;;;;;;;7.55;1.70;;;17.10;49.50;;;;;;4143387;28;20021;-58
2021/05/16 03:50:53;;;;;;;5.43;1.50;;;17.20;49.60;;;;;;4145248;28;20380;-61
2021/05/16 03:52:55;;;;;;;6.30;1.33;;;17.20;49.60;;;;;;4143049;28;20033;-58
2021/05/16 03:54:57;;;;;;;6.55;1.10;;;17.20;49.40;;;;;;4144382;28;20080;-59
2021/05/16 03:57:00;;;;;;;5.20;1.40;;;17.20;49.30;;;;;;4136618;28;20060;-59
2021/05/16 03:59:03;;;;;;;4.75;1.33;;;17.30;49.40;;;;;;4145184;28;20045;-58
2021/05/16 04:01:05;;;;;;;4.63;1.30;;;17.30;49.50;;;;;;4146807;28;20044;-59
2021/05/16 04:03:07;;;;;;;4.17;1.83;;;17.40;49.60;;;;;;4143373;28;20067;-59
2021/05/16 04:05:10;;;;;;;3.80;1.13;;;17.40;49.70;;;;;;4140569;28;20029;-59
2021/05/16 04:07:12;;;;;;;3.45;1.60;;;17.40;49.80;;;;;;4144918;28;20108;-59
2021/05/16 04:09:14;;;;;;;5.07;1.25;;;17.40;49.80;;;;;;4143838;28;20128;-58
2021/05/16 04:11:17;;;;;;;5.07;1.23;;;17.50;49.60;;;;;;4144364;28;20045;-57
2021/05/16 04:13:19;;;;;;;3.30;1.38;;;17.60;49.50;;;;;;4140245;28;20657;-58
2021/05/16 04:15:22;;;;;;;5.68;1.27;;;17.60;49.40;;;;;;4144239;28;20037;-60
2021/05/16 04:17:24;;;;;;;7.47;1.40;;;17.60;49.30;;;;;;4144496;28;20038;-59
2021/05/16 04:19:26;;;;;;;5.35;1.30;;;17.70;49.30;;;;;;4145239;28;20025;-62
2021/05/16 04:21:28;;;;;;;2.67;1.30;;;17.70;49.40;;;;;;4141712;28;20062;-63
2021/05/16 04:23:30;;;;;;;5.22;1.63;;;17.70;50.00;;;;;;4145370;28;20053;-62
2021/05/16 04:25:32;;;;;;;1.55;1.05;;;17.80;49.40;;;;;;4133185;28;20034;-63
2021/05/16 04:27:34;;;;;;;2.20;1.25;;;17.80;49.30;;;;;;4142037;28;20079;-59
2021/05/16 04:29:36;;;;;;;5.55;1.30;;;17.90;49.20;;;;;;4139454;28;20041;-61
2021/05/16 04:31:39;;;;;;;4.15;1.30;;;17.90;48.40;;;;;;4149114;28;20432;-61
2021/05/16 04:33:41;;;;;;;12.73;1.92;;;17.90;48.30;;;;;;4148784;28;20046;-62
2021/05/16 04:35:43;;;;;;;11.80;1.90;;;18.00;49.20;;;;;;4148899;28;20380;-62
2021/05/16 04:37:45;;;;;;;10.75;1.63;;;18.00;48.80;;;;;;4148196;28;20447;-62
2021/05/16 04:39:48;;;;;;;8.93;1.70;;;18.10;48.50;;;;;;4151940;28;20457;-62
2021/05/16 04:41:50;;;;;;;22.45;1.42;;;18.10;48.30;;;;;;4146880;28;20044;-62
2021/05/16 04:43:52;;;;;;;7.28;1.13;;;18.20;48.30;;;;;;4146384;28;20095;-60
2021/05/16 04:45:54;;;;;;;2.58;0.95;;;18.20;48.20;;;;;;4148096;28;20029;-60
2021/05/16 04:47:56;;;;;;;1.58;0.70;;;18.30;48.10;;;;;;4148947;28;21316;-61
2021/05/16 04:49:58;;;;;;;1.83;0.80;;;18.30;48.10;;;;;;4143521;28;20048;-61
2021/05/16 04:52:00;;;;;;;1.77;0.80;;;18.30;48.00;;;;;;4148178;28;20478;-61
2021/05/16 04:54:03;;;;;;;2.58;0.90;;;18.30;48.00;;;;;;4152027;28;20148;-60
2021/05/16 04:56:05;;;;;;;3.83;1.10;;;18.40;48.00;;;;;;4154820;28;20499;-62
2021/05/16 04:58:09;;;;;;;0.97;0.80;;;18.40;48.10;;;;;;4146188;28;20033;-61
2021/05/16 05:00:12;;;;;;;1.23;0.70;;;18.40;48.00;;;;;;4144196;28;20306;-62
2021/05/16 05:02:14;;;;;;;2.03;1.00;;;18.50;48.10;;;;;;4140233;28;20045;-60
2021/05/16 05:04:16;;;;;;;2.30;0.85;;;18.60;48.10;;;;;;4140557;28;20026;-60
2021/05/16 05:06:19;;;;;;;1.00;0.90;;;18.60;48.00;;;;;;4139647;28;20139;-60
2021/05/16 05:08:22;;;;;;;2.40;0.75;;;18.60;47.90;;;;;;4144234;28;20037;-59
2021/05/16 05:10:24;;;;;;;;;;;18.70;47.90;;;;;;4142607;28;20032;-61
2021/05/16 05:12:26;;;;;;;1.85;1.08;;;18.70;47.80;;;;;;4141507;28;20119;-59
2021/05/16 05:14:29;;;;;;;1.52;0.90;;;18.80;47.70;;;;;;4146891;28;20041;-59
2021/05/16 05:16:31;;;;;;;1.27;0.90;;;18.80;47.70;;;;;;4140910;28;20079;-61
2021/05/16 05:18:33;;;;;;;4.38;1.33;;;18.80;47.60;;;;;;4139592;28;20109;-61
2021/05/16 05:20:36;;;;;;;2.47;0.98;;;18.80;47.50;;;;;;4137692;28;20060;-60
2021/05/16 05:22:38;;;;;;;2.90;1.23;;;18.90;47.70;;;;;;4155818;28;20105;-61
2021/05/16 05:24:40;;;;;;;3.55;0.90;;;18.90;47.70;;;;;;4146197;28;20034;-60
2021/05/16 05:26:42;;;;;;;3.40;0.75;;;18.90;47.70;;;;;;4145335;28;20055;-60
2021/05/16 05:28:44;;;;;;;2.40;0.80;;;18.90;47.60;;;;;;4137370;28;20115;-60
2021/05/16 05:30:46;;;;;;;2.03;0.82;;;18.90;47.60;;;;;;4138660;28;20123;-59
2021/05/16 05:32:49;;;;;;;1.92;0.93;;;18.90;47.70;;;;;;4145571;28;20113;-61
2021/05/16 05:34:51;;;;;;;1.40;0.88;;;18.90;47.60;;;;;;4143235;28;20124;-60
2021/05/16 05:36:54;;;;;;;3.80;0.90;;;18.90;47.70;;;;;;4147009;28;20038;-61
2021/05/16 05:38:58;;;;;;;1.95;0.95;;;18.90;47.70;;;;;;4164413;28;20106;-60
2021/05/16 05:41:00;;;;;;;1.95;0.80;;;18.80;47.60;;;;;;4144589;28;20038;-60
2021/05/16 05:43:02;;;;;;;2.60;0.88;;;18.90;47.60;;;;;;4138960;28;20128;-61
2021/05/16 05:45:09;;;;;;;1.58;0.85;;;18.80;47.50;;;;;;4138531;28;20043;-61
2021/05/16 05:47:11;;;;;;;3.38;1.13;;;18.80;47.50;;;;;;4143264;28;20053;-61
2021/05/16 05:49:13;;;;;;;3.17;1.08;;;18.80;47.50;;;;;;4142946;28;20022;-60
2021/05/16 05:51:15;;;;;;;3.20;0.90;;;18.80;47.60;;;;;;4138901;28;20089;-61
2021/05/16 05:53:17;;;;;;;4.15;0.98;;;18.70;47.60;;;;;;4140849;28;20383;-60
2021/05/16 05:55:19;;;;;;;2.72;1.00;;;18.70;47.50;;;;;;4139727;28;20571;-61
2021/05/16 05:57:22;;;;;;;1.52;0.98;;;18.60;47.40;;;;;;4135523;28;20037;-61
2021/05/16 05:59:24;;;;;;;3.40;0.98;;;18.60;47.70;;;;;;4140643;28;20041;-61
2021/05/16 06:01:26;;;;;;;2.47;0.90;;;18.60;47.80;;;;;;4139887;28;20047;-62
2021/05/16 06:03:28;;;;;;;1.52;1.10;;;18.50;47.90;;;;;;4139258;28;20045;-62
2021/05/16 06:05:30;;;;;;;2.35;1.00;;;18.50;48.10;;;;;;4135346;28;20130;-64
2021/05/16 06:07:32;;;;;;;4.47;1.13;;;18.40;48.20;;;;;;4141792;28;21078;-63
2021/05/16 06:09:36;;;;;;;2.22;1.00;;;18.50;48.40;;;;;;4144035;28;20025;-62
2021/05/16 06:11:38;;;;;;;2.95;1.08;;;18.40;48.30;;;;;;4138739;28;20044;-61
2021/05/16 06:13:40;;;;;;;2.65;1.15;;;18.40;48.30;;;;;;4134535;28;20022;-62
2021/05/16 06:15:42;;;;;;;3.22;0.90;;;18.40;48.60;;;;;;4143060;28;20580;-62
2021/05/16 06:17:44;;;;;;;1.63;1.02;;;18.40;48.60;;;;;;4142437;28;20099;-64
2021/05/16 06:19:46;;;;;;;2.30;1.00;;;18.40;48.50;;;;;;4138951;28;20447;-61
2021/05/16 06:21:48;;;;;;;5.47;1.30;;;18.40;48.60;;;;;;4139774;28;20416;-60
2021/05/16 06:26:04;;;;;;;5.82;1.45;;;18.40;49.00;;;;;;4138569;28;20352;-60
2021/05/16 06:28:07;;;;;;;4.72;1.27;;;18.40;48.90;;;;;;4150526;28;20116;-62
2021/05/16 06:30:10;;;;;;;8.35;1.30;;;18.40;49.00;;;;;;4147216;28;20157;-61
2021/05/16 06:32:12;;;;;;;3.75;1.58;;;18.40;49.30;;;;;;4141661;28;20396;-61
2021/05/16 06:34:14;;;;;;;3.97;2.28;;;18.30;48.00;;;;;;4145315;28;20362;-63
2021/05/16 06:36:16;;;;;;;3.65;1.50;;;18.30;44.70;;;;;;4134009;28;20847;-63
2021/05/16 06:38:18;;;;;;;9.70;2.00;;;18.20;45.70;;;;;;4136840;28;20407;-63
2021/05/16 06:40:20;;;;;;;2.58;1.52;;;18.20;45.60;;;;;;4142318;28;20026;-57
2021/05/16 06:42:22;;;;;;;4.93;1.90;;;18.20;45.60;;;;;;4134424;28;20067;-60
2021/05/16 06:44:25;;;;;;;2.30;1.77;;;18.20;46.20;;;;;;4124323;28;20264;-58
2021/05/16 06:46:28;;;;;;;7.88;2.63;;;18.20;46.40;;;;;;4125222;28;20029;-60
2021/05/16 06:48:30;;;;;;;7.43;3.38;;;18.30;46.10;;;;;;4125544;28;20073;-58
2021/05/16 06:50:33;;;;;;;19.35;5.78;;;18.20;45.20;;;;;;4120008;28;20046;-58
2021/05/16 06:52:36;;;;;;;27.48;11.43;;;18.10;44.60;;;;;;4125982;28;20411;-58
2021/05/16 06:54:38;;;;;;;27.50;13.75;;;18.10;44.30;;;;;;4125516;28;20101;-60
2021/05/16 06:56:40;;;;;;;32.15;15.07;;;18.00;44.30;;;;;;4120672;28;20526;-58
2021/05/16 06:58:43;;;;;;;36.45;17.55;;;18.00;45.10;;;;;;4123160;28;20039;-60
2021/05/16 07:00:45;;;;;;;34.22;18.92;;;17.90;45.20;;;;;;4110795;28;20616;-59
2021/05/16 07:02:47;;;;;;;44.33;21.13;;;17.90;45.80;;;;;;4119901;28;20044;-60
2021/05/16 07:04:50;;;;;;;45.22;23.40;;;17.90;46.00;;;;;;4120224;28;20362;-61
2021/05/16 07:06:52;;;;;;;40.03;20.25;;;17.90;46.60;;;;;;4120516;28;21170;-59
2021/05/16 07:08:54;;;;;;;44.38;20.73;;;17.90;47.20;;;;;;4122994;28;20179;-61
2021/05/16 07:10:56;;;;;;;37.65;19.33;;;17.90;47.60;;;;;;4127064;28;20132;-60
2021/05/16 07:12:59;;;;;;;45.53;20.45;;;17.90;47.90;;;;;;4129835;28;20056;-60
2021/05/16 07:15:01;;;;;;;36.35;19.23;;;17.90;48.30;;;;;;4127987;28;20060;-61
2021/05/16 07:17:03;;;;;;;34.90;18.88;;;17.90;48.50;;;;;;4121975;28;20317;-60
2021/05/16 07:19:05;;;;;;;31.80;18.05;;;17.90;48.90;;;;;;4123131;28;20287;-59
2021/05/16 07:21:07;;;;;;;33.72;17.52;;;17.90;49.20;;;;;;4126432;28;20045;-58
2021/05/16 07:23:10;;;;;;;29.13;15.60;;;17.90;49.20;;;;;;4115827;28;20056;-61
2021/05/16 07:25:12;;;;;;;29.75;15.60;;;17.90;49.50;;;;;;4132775;28;20479;-60
2021/05/16 07:27:15;;;;;;;28.65;13.80;;;18.00;49.80;;;;;;4130290;28;20810;-59
2021/05/16 07:29:17;;;;;;;27.38;13.25;;;18.00;49.80;;;;;;4131413;28;20084;-60
2021/05/16 07:31:20;;;;;;;21.75;11.77;;;18.00;50.50;;;;;;4131453;28;20065;-59
2021/05/16 07:33:22;;;;;;;19.92;10.18;;;18.00;50.00;;;;;;4132078;28;20064;-59
2021/05/16 07:35:24;;;;;;;19.15;10.05;;;18.00;50.00;;;;;;4130117;28;20242;-60
2021/05/16 07:37:26;;;;;;;19.70;10.68;;;18.00;50.10;;;;;;4127225;28;20336;-61
2021/05/16 07:39:28;;;;;;;18.38;9.27;;;18.00;50.00;;;;;;4126365;28;20038;-60
2021/05/16 07:41:30;;;;;;;16.15;9.48;;;18.00;50.20;;;;;;4125093;28;20045;-60
2021/05/16 07:43:32;;;;;;;14.80;7.30;;;18.00;50.20;;;;;;4126382;28;20037;-60
2021/05/16 07:45:36;;;;;;;16.33;8.50;;;18.00;50.30;;;;;;4132267;28;20108;-61
2021/05/16 07:47:39;;;;;;;12.90;6.65;;;18.00;50.20;;;;;;4127684;28;21214;-61
2021/05/16 07:49:41;;;;;;;15.15;7.18;;;18.00;50.30;;;;;;4129089;28;20519;-60
2021/05/16 07:51:44;;;;;;;13.13;6.57;;;18.00;50.30;;;;;;4130210;28;21336;-60
2021/05/16 07:53:46;;;;;;;9.55;5.05;;;18.00;50.30;;;;;;4128397;28;20033;-60
2021/05/16 07:55:48;;;;;;;9.88;5.38;;;18.00;50.30;;;;;;4128662;28;20455;-60
2021/05/16 07:57:50;;;;;;;11.00;5.32;;;18.00;50.30;;;;;;4131253;28;20121;-62
2021/05/16 07:59:52;;;;;;;12.10;5.57;;;18.00;50.40;;;;;;4126298;28;20088;-60
2021/05/16 08:01:54;;;;;;;9.48;4.15;;;18.00;50.40;;;;;;4125064;28;20152;-60
2021/05/16 08:03:57;;;;;;;9.15;4.32;;;18.00;50.40;;;;;;4129455;28;20561;-61
2021/05/16 08:05:59;;;;;;;8.93;4.65;;;18.00;50.40;;;;;;4123162;28;20046;-62
2021/05/16 08:08:01;;;;;;;6.25;3.92;;;18.00;50.40;;;;;;4127647;28;20132;-60
2021/05/16 08:10:05;;;;;;;6.20;3.63;;;18.10;50.50;;;;;;4133448;28;20052;-62
2021/05/16 08:12:08;;;;;;;7.15;3.75;;;18.10;50.50;;;;;;4130391;28;20541;-61
2021/05/16 08:14:10;;;;;;;6.50;3.30;;;18.10;50.40;;;;;;4129202;28;20045;-62
2021/05/16 08:16:12;;;;;;;6.78;3.25;;;18.00;50.50;;;;;;4128800;28;20456;-59
2021/05/16 08:18:14;;;;;;;6.28;3.30;;;18.10;50.70;;;;;;4129286;28;20149;-61
2021/05/16 08:20:16;;;;;;;4.93;2.80;;;18.10;50.70;;;;;;4127926;28;20073;-61
2021/05/16 08:22:20;;;;;;;4.60;2.90;;;18.10;50.60;;;;;;4129491;28;20083;-61
2021/05/16 08:24:22;;;;;;;6.15;2.83;;;18.10;50.60;;;;;;4127935;28;20348;-60
2021/05/16 08:26:24;;;;;;;5.20;2.58;;;18.30;50.60;;;;;;4128357;28;20045;-59
2021/05/16 08:28:26;;;;;;;5.32;2.60;;;18.80;49.70;;;;;;4129823;28;20734;-60
2021/05/16 08:30:29;;;;;;;7.28;2.55;;;19.30;48.60;;;;;;4127342;28;20041;-59
2021/05/16 08:32:31;;;;;;;5.00;2.55;;;19.50;47.80;;;;;;4129705;28;20578;-58
2021/05/16 08:34:34;;;;;;;3.22;2.20;;;19.40;47.60;;;;;;4125103;28;20106;-60
2021/05/16 08:36:38;;;;;;;;;;;19.40;47.90;;;;;;4130209;28;20041;-60
2021/05/16 08:38:40;;;;;;;3.45;2.20;;;19.40;48.20;;;;;;4126461;28;20063;-60
2021/05/16 08:40:42;;;;;;;3.15;2.33;;;19.70;47.70;;;;;;4128915;28;20123;-58
2021/05/16 08:42:45;;;;;;;5.18;2.50;;;19.90;47.10;;;;;;4125259;28;20210;-57
2021/05/16 08:44:47;;;;;;;3.85;2.47;;;19.80;46.90;;;;;;4127152;28;20597;-58
2021/05/16 08:46:50;;;;;;;4.30;2.28;;;19.70;47.10;;;;;;4127210;28;20152;-59
2021/05/16 08:48:52;;;;;;;4.03;2.08;;;19.70;47.40;;;;;;4127814;28;20057;-59
2021/05/16 08:50:55;;;;;;;2.67;1.90;;;19.70;47.50;;;;;;4127364;28;20513;-59
2021/05/16 08:52:57;;;;;;;3.35;1.92;;;19.80;47.20;;;;;;4124908;28;21066;-59
2021/05/16 08:54:59;;;;;;;4.25;2.15;;;19.80;47.10;;;;;;4129344;28;20612;-59
2021/05/16 08:57:01;;;;;;;4.78;2.30;;;19.70;47.10;;;;;;4127724;28;20505;-59
2021/05/16 08:59:03;;;;;;;5.80;2.42;;;19.70;47.40;;;;;;4122980;28;20106;-58
2021/05/16 09:01:38;;;;;;;2.90;1.98;;;19.80;47.20;;;;;;4128525;28;20095;-60
2021/05/16 09:03:40;;;;;;;4.00;2.25;;;19.80;47.00;;;;;;4126995;28;21151;-59
2021/05/16 09:05:47;;;;;;;3.88;2.22;;;19.80;47.20;;;;;;4127775;28;20464;-62
2021/05/16 09:08:02;;;;;;;3.60;2.08;;;19.70;47.10;;;;;;4126672;28;20034;-58
2021/05/16 09:10:04;;;;;;;4.32;2.30;;;20.00;47.10;;;;;;4129278;28;20172;-58
2021/05/16 09:12:15;;;;;;;3.00;1.93;;;20.30;46.40;;;;;;4126694;28;20222;-59
2021/05/16 09:14:17;;;;;;;4.60;2.20;;;20.40;45.80;;;;;;4128152;28;20156;-60
2021/05/16 09:16:20;;;;;;;2.80;1.88;;;20.30;45.90;;;;;;4127429;28;20082;-61
2021/05/16 09:18:33;;;;;;;3.15;2.05;;;20.50;45.90;;;;;;4125330;28;20049;-61
2021/05/16 09:20:35;;;;;;;3.30;1.95;;;20.90;45.40;;;;;;4124282;28;20397;-61
2021/05/16 09:22:38;;;;;;;3.08;2.10;;;;;;;;;;4125416;28;20549;-60
2021/05/16 09:24:40;;;;;;;2.45;1.85;;;21.30;44.70;;;;;;4129733;28;20091;-59
2021/05/16 09:26:58;;;;;;;3.22;2.00;;;;;;;;;;4128003;28;20049;-60
2021/05/16 09:29:17;;;;;;;5.82;2.20;;;;;;;;;;4124705;28;20060;-60
2021/05/16 09:31:32;;;;;;;3.00;1.90;;;;;;;;;;4126908;28;20080;-60
2021/05/16 09:33:34;;;;;;;2.88;1.77;;;;;;;;;;4125940;28;20037;-61
2021/05/16 09:35:40;;;;;;;2.40;1.70;;;;;;;;;;4123722;28;20880;-61
2021/05/16 09:38:08;;;;;;;2.63;1.77;;;22.20;43.50;;;;;;4127211;28;20083;-62
2021/05/16 09:40:10;;;;;;;3.20;1.90;;;;;;;;;;4124224;28;20386;-62
2021/05/16 09:42:14;;;;;;;3.00;1.63;;;24.00;40.60;;;;;;4124766;28;20137;-62
2021/05/16 09:44:42;;;;;;;2.70;1.90;;;24.40;39.80;;;;;;4123688;28;20034;-63
2021/05/16 09:47:05;;;;;;;4.18;2.00;;;24.60;39.60;;;;;;4126229;28;21063;-61
2021/05/16 09:49:07;;;;;;;1.55;1.33;;;24.80;39.30;;;;;;4126597;28;20645;-60
2021/05/16 09:51:15;;;;;;;2.22;1.48;;;25.00;38.90;;;;;;4132274;28;20048;-60
2021/05/16 09:53:17;;;;;;;1.95;1.50;;;;;;;;;;4132238;28;20041;-59
2021/05/16 09:55:19;;;;;;;3.00;1.70;;;25.20;38.80;;;;;;4137472;28;20118;-59
2021/05/16 09:57:21;;;;;;;2.38;1.63;;;25.50;38.30;;;;;;4132825;28;20037;-60
2021/05/16 09:59:24;;;;;;;2.05;1.40;;;25.60;38.80;;;;;;4131655;28;20045;-61
2021/05/16 10:01:27;;;;;;;1.77;1.42;;;25.70;38.00;;;;;;4124715;28;20033;-61
2021/05/16 10:03:30;;;;;;;2.88;1.63;;;25.90;37.90;;;;;;4128791;28;20061;-61
2021/05/16 10:05:32;;;;;;;2.30;1.60;;;;;;;;;;4124436;28;20566;-58
2021/05/16 10:07:35;;;;;;;3.67;1.67;;;26.00;37.80;;;;;;4123507;28;20147;-59
2021/05/16 10:09:37;;;;;;;2.75;1.58;;;26.30;37.50;;;;;;4128282;28;20053;-59
2021/05/16 10:11:40;;;;;;;3.47;1.40;;;26.40;37.30;;;;;;4123751;28;20084;-61
2021/05/16 10:14:08;;;;;;;1.92;1.35;;;26.50;37.20;;;;;;4124630;28;20608;-61
2021/05/16 10:16:17;;;;;;;2.80;1.58;;;26.60;37.10;;;;;;4127263;28;20042;-60
2021/05/16 10:18:20;;;;;;;2.85;1.40;;;26.80;37.00;;;;;;4124258;28;20046;-55
2021/05/16 10:20:23;;;;;;;;;;;26.90;36.80;;;;;;4125476;28;20598;-57
2021/05/16 10:22:28;;;;;;;2.25;1.30;;;26.90;36.80;;;;;;4125979;28;19921;-59
2021/05/16 10:24:45;;;;;;;1.98;1.30;;;27.10;37.20;;;;;;4124042;28;20123;-58
2021/05/16 10:26:47;;;;;;;2.03;1.27;;;27.20;36.50;;;;;;4125933;28;20045;-57
2021/05/16 10:29:09;;;;;;;2.47;1.40;;;27.30;36.30;;;;;;4127919;28;20489;-58
2021/05/16 10:31:11;;;;;;;2.60;1.30;;;27.30;36.10;;;;;;4126667;28;20087;-59
2021/05/16 10:33:36;;;;;;;2.00;1.25;;;27.40;36.00;;;;;;4124239;28;20774;-57
2021/05/16 10:35:50;;;;;;;1.98;1.30;;;27.50;36.00;;;;;;4123067;28;20054;-59
2021/05/16 10:37:54;;;;;;;2.83;1.58;;;27.60;35.80;;;;;;4123832;28;20558;-59
2021/05/16 10:39:56;;;;;;;6.28;1.45;;;27.70;35.70;;;;;;4126922;28;20362;-59
2021/05/16 10:42:19;;;;;;;2.38;1.40;;;27.80;35.60;;;;;;4122128;28;20041;-60
2021/05/16 10:44:31;;;;;;;2.58;1.25;;;27.90;35.50;;;;;;4123122;28;20056;-60
2021/05/16 10:46:40;;;;;;;2.42;1.60;;;28.00;35.30;;;;;;4127346;28;20025;-59